createdAt,value
2023-01-26T00:01:23.577Z,18.95
2023-01-26T00:03:51.005Z,15.63
2023-01-26T00:06:19.965Z,22.75
2023-01-26T00:08:49.139Z,21.80
2023-01-26T00:11:19.443Z,37.10
2023-01-26T00:13:49.537Z,29.17
2023-01-26T00:16:16.277Z,32.10
2023-01-26T00:18:43.537Z,21.33
2023-01-26T00:21:15.346Z,31.13
2023-01-26T00:23:42.306Z,30.42
2023-01-26T00:26:10.964Z,28.52
2023-01-26T00:28:37.619Z,32.45
2023-01-26T00:31:09.243Z,28.05
2023-01-26T00:33:36.026Z,39.15
2023-01-26T00:36:02.759Z,32.08
2023-01-26T00:38:29.384Z,33.35
2023-01-26T00:40:56.083Z,30.38
2023-01-26T00:43:22.731Z,41.60
2023-01-26T00:45:49.621Z,40.55
2023-01-26T00:48:16.953Z,40.83
2023-01-26T00:50:43.775Z,31.08
2023-01-26T00:53:10.573Z,32.22
2023-01-26T00:55:37.609Z,41.42
2023-01-26T00:58:06.329Z,31.20
2023-01-26T01:00:35.037Z,43.70
2023-01-26T01:03:02.280Z,41.85
2023-01-26T01:05:30.893Z,42.05
2023-01-26T01:07:58.458Z,29.92
2023-01-26T01:10:27.606Z,33.88
2023-01-26T01:12:54.895Z,29.20
2023-01-26T01:15:21.588Z,27.10
2023-01-26T01:17:48.685Z,41.53
2023-01-26T01:20:15.944Z,29.65
2023-01-26T01:22:42.668Z,32.65
2023-01-26T01:25:09.559Z,31.13
2023-01-26T01:27:36.166Z,31.85
2023-01-26T01:30:07.770Z,24.30
2023-01-26T01:32:39.720Z,38.00
2023-01-26T01:35:07.313Z,38.00
2023-01-26T01:37:34.448Z,38.40
2023-01-26T01:40:01.080Z,27.85
2023-01-26T01:42:28.172Z,31.40
2023-01-26T01:45:25.821Z,29.88
2023-01-26T01:47:55.845Z,35.92
2023-01-26T01:50:23.418Z,35.10
2023-01-26T01:52:50.367Z,39.47
2023-01-26T01:55:17.684Z,33.50
2023-01-26T01:57:51.768Z,38.20
2023-01-26T02:00:21.572Z,30.60
2023-01-26T02:03:11.525Z,31.13
2023-01-26T02:06:16.599Z,31.77
2023-01-26T02:08:45.400Z,34.83
2023-01-26T02:11:16.252Z,31.80
2023-01-26T02:13:45.074Z,25.65
2023-01-26T02:16:12.254Z,27.08
2023-01-26T02:18:38.938Z,31.70
2023-01-26T02:21:09.212Z,41.20
2023-01-26T02:23:56.451Z,36.75
2023-01-26T02:26:28.366Z,25.42
2023-01-26T02:28:55.507Z,25.73
2023-01-26T02:31:23.955Z,37.13
2023-01-26T02:33:50.696Z,28.88
2023-01-26T02:36:21.954Z,26.83
2023-01-26T02:39:00.560Z,34.47
2023-01-26T02:41:45.847Z,27.02
2023-01-26T02:46:40.302Z,25.08
2023-01-26T02:49:25.734Z,32.83
2023-01-26T02:51:52.497Z,21.75
2023-01-26T02:54:37.910Z,20.88
2023-01-26T02:59:30.998Z,20.95
2023-01-26T03:01:58.310Z,23.42
2023-01-26T03:04:25.215Z,30.45
2023-01-26T03:06:52.059Z,25.40
2023-01-26T03:09:18.783Z,25.45
2023-01-26T03:11:45.442Z,29.85
2023-01-26T03:14:14.416Z,24.67
2023-01-26T03:16:41.928Z,29.38
2023-01-26T03:19:31.521Z,18.55
2023-01-26T03:22:17.749Z,33.63
2023-01-26T03:25:03.243Z,22.63
2023-01-26T03:27:36.147Z,26.45
2023-01-26T03:30:03.263Z,37.20
2023-01-26T03:32:29.983Z,30.73
2023-01-26T03:34:56.645Z,25.15
2023-01-26T03:37:23.396Z,29.70
2023-01-26T03:40:10.474Z,28.15
2023-01-26T03:42:56.535Z,27.65
2023-01-26T03:45:41.597Z,26.33
2023-01-26T03:48:29.412Z,30.15
2023-01-26T03:51:14.697Z,24.23
2023-01-26T03:56:27.379Z,21.60
2023-01-26T03:58:58.736Z,16.73
2023-01-26T04:01:27.577Z,16.73
2023-01-26T04:04:14.954Z,18.10
2023-01-26T04:07:02.317Z,5.75
2023-01-26T04:09:29.749Z,19.00
2023-01-26T04:11:56.394Z,10.50
2023-01-26T04:14:49.122Z,16.42
2023-01-26T04:17:36.176Z,15.05
2023-01-26T04:20:21.498Z,14.80
2023-01-26T04:25:17.012Z,15.68
2023-01-26T04:27:44.072Z,19.95
2023-01-26T04:30:13.525Z,11.82
2023-01-26T04:32:40.312Z,14.80
2023-01-26T04:35:09.024Z,16.35
2023-01-26T04:37:35.986Z,13.52
2023-01-26T04:40:04.324Z,17.77
2023-01-26T04:42:31.077Z,10.50
2023-01-26T04:44:58.196Z,17.10
2023-01-26T04:47:24.869Z,22.92
2023-01-26T04:49:51.489Z,14.90
2023-01-26T04:52:18.355Z,25.00
2023-01-26T04:54:50.840Z,19.85
2023-01-26T04:57:20.738Z,16.48
2023-01-26T04:59:47.613Z,15.75
2023-01-26T05:02:17.302Z,15.27
2023-01-26T05:04:43.993Z,13.20
2023-01-26T05:07:10.612Z,12.52
2023-01-26T05:09:37.264Z,11.35
2023-01-26T05:12:23.962Z,11.60
2023-01-26T05:14:50.539Z,11.98
2023-01-26T05:17:17.157Z,17.27
2023-01-26T05:19:43.784Z,15.18
2023-01-26T05:22:12.442Z,17.42
2023-01-26T05:24:39.248Z,19.00
2023-01-26T05:27:24.278Z,14.10
2023-01-26T05:29:53.392Z,13.75
2023-01-26T05:32:20.094Z,9.32
2023-01-26T05:34:46.723Z,10.43
2023-01-26T05:37:14.946Z,12.20
2023-01-26T05:39:42.210Z,12.32
2023-01-26T05:42:08.925Z,20.08
2023-01-26T05:44:35.557Z,10.10
2023-01-26T05:47:02.231Z,9.73
2023-01-26T05:49:28.900Z,10.05
2023-01-26T05:51:55.759Z,9.95
2023-01-26T05:54:23.649Z,12.70
2023-01-26T05:56:50.831Z,13.55
2023-01-26T05:59:17.499Z,14.07
2023-01-26T06:01:44.112Z,9.05
2023-01-26T06:04:10.869Z,12.27
2023-01-26T06:06:37.619Z,11.63
2023-01-26T06:09:04.296Z,8.88
2023-01-26T06:11:32.932Z,14.23
2023-01-26T06:13:59.605Z,9.43
2023-01-26T06:16:26.348Z,8.48
2023-01-26T06:18:52.988Z,10.52
2023-01-26T06:21:19.667Z,15.10
2023-01-26T06:23:46.431Z,17.42
2023-01-26T06:26:13.158Z,12.65
2023-01-26T06:28:39.798Z,19.55
2023-01-26T06:31:08.069Z,19.58
2023-01-26T06:33:37.436Z,5.18
2023-01-26T06:36:15.056Z,7.90
2023-01-26T06:38:46.634Z,11.02
2023-01-26T06:41:13.427Z,8.93
2023-01-26T06:43:40.114Z,11.30
2023-01-26T06:46:07.228Z,11.93
2023-01-26T06:48:35.132Z,6.00
2023-01-26T06:51:43.334Z,5.53
2023-01-26T06:54:14.423Z,16.48
2023-01-26T06:56:41.172Z,19.75
2023-01-26T06:59:09.880Z,8.75
2023-01-26T07:01:45.352Z,18.48
2023-01-26T07:04:12.002Z,15.73
2023-01-26T07:06:38.761Z,9.50
2023-01-26T07:09:05.466Z,16.48
2023-01-26T07:11:32.776Z,16.48
2023-01-26T07:13:59.527Z,8.88
2023-01-26T07:16:26.689Z,13.52
2023-01-26T07:18:54.989Z,16.23
2023-01-26T07:21:23.062Z,10.35
2023-01-26T07:23:51.590Z,15.45
2023-01-26T07:26:19.019Z,10.45
2023-01-26T07:28:45.691Z,18.50
2023-01-26T07:31:13.160Z,9.75
2023-01-26T07:33:39.996Z,11.50
2023-01-26T07:36:07.182Z,4.93
2023-01-26T07:38:34.889Z,8.18
2023-01-26T07:41:09.427Z,15.68
2023-01-26T07:43:37.952Z,13.93
2023-01-26T07:46:05.611Z,11.23
2023-01-26T07:48:34.335Z,6.70
2023-01-26T07:51:03.700Z,17.02
2023-01-26T07:53:34.185Z,8.63
2023-01-26T07:56:13.054Z,16.42
2023-01-26T07:58:40.319Z,15.77
2023-01-26T08:01:09.564Z,13.45
2023-01-26T08:03:36.668Z,12.27
2023-01-26T08:06:04.003Z,9.40
2023-01-26T08:08:31.215Z,22.52
2023-01-26T08:10:58.700Z,14.68
2023-01-26T08:13:34.747Z,13.32
2023-01-26T08:16:05.082Z,5.55
2023-01-26T08:18:32.165Z,15.07
2023-01-26T08:20:59.114Z,10.95
2023-01-26T08:23:25.863Z,13.13
2023-01-26T08:25:52.541Z,11.43
2023-01-26T08:28:21.193Z,13.75
2023-01-26T08:30:48.066Z,15.55
2023-01-26T08:33:14.986Z,11.43
2023-01-26T08:35:41.623Z,7.53
2023-01-26T08:38:08.250Z,16.73
2023-01-26T08:40:34.864Z,8.82
2023-01-26T08:43:02.584Z,8.48
2023-01-26T08:45:31.974Z,10.40
2023-01-26T08:47:58.646Z,19.75
2023-01-26T08:50:25.913Z,24.58
2023-01-26T08:52:55.832Z,9.73
2023-01-26T08:55:22.592Z,14.23
2023-01-26T08:57:52.769Z,9.25
2023-01-26T09:00:19.830Z,6.95
2023-01-26T09:02:46.662Z,10.77
2023-01-26T09:05:13.376Z,11.73
2023-01-26T09:07:39.991Z,13.15
2023-01-26T09:10:07.582Z,15.38
2023-01-26T09:12:34.250Z,16.13
2023-01-26T09:15:00.870Z,14.80
2023-01-26T09:17:27.490Z,12.18
2023-01-26T09:19:54.129Z,8.73
2023-01-26T09:22:20.802Z,12.23
2023-01-26T09:24:47.396Z,10.80
2023-01-26T09:27:14.227Z,22.40
2023-01-26T09:29:40.935Z,15.10
2023-01-26T09:32:07.674Z,8.38
2023-01-26T09:34:34.440Z,16.85
2023-01-26T09:37:01.064Z,15.95
2023-01-26T09:39:27.743Z,9.07
2023-01-26T09:42:17.365Z,3.35
2023-01-26T09:44:52.344Z,7.82
2023-01-26T09:47:27.115Z,7.38
2023-01-26T09:50:02.517Z,12.35
2023-01-26T09:53:13.000Z,10.35
2023-01-26T09:58:14.681Z,15.02
2023-01-26T10:00:48.838Z,16.98
2023-01-26T10:03:39.503Z,16.85
2023-01-26T10:06:13.795Z,9.07
2023-01-26T10:08:43.129Z,17.60
2023-01-26T10:11:52.993Z,15.05
2023-01-26T10:14:31.413Z,18.33
2023-01-26T10:16:59.780Z,5.55
2023-01-26T10:19:42.480Z,14.13
2023-01-26T10:22:18.237Z,9.85
2023-01-26T10:24:49.065Z,10.73
2023-01-26T10:27:15.921Z,13.75
2023-01-26T10:29:42.690Z,8.90
2023-01-26T10:32:17.356Z,13.38
2023-01-26T10:34:47.818Z,7.22
2023-01-26T10:37:24.142Z,7.40
2023-01-26T10:40:17.564Z,13.63
2023-01-26T10:42:55.011Z,8.35
2023-01-26T10:45:32.318Z,11.57
2023-01-26T10:48:15.985Z,15.73
2023-01-26T10:50:42.626Z,7.10
2023-01-26T10:53:16.601Z,13.10
2023-01-26T10:55:43.278Z,14.50
2023-01-26T10:58:43.917Z,9.98
2023-01-26T11:01:12.587Z,11.65
2023-01-26T11:03:39.887Z,14.77
2023-01-26T11:06:17.819Z,8.07
2023-01-26T11:08:44.442Z,12.00
2023-01-26T11:11:37.828Z,17.70
2023-01-26T11:14:19.085Z,7.07
2023-01-26T11:16:52.782Z,14.93
2023-01-26T11:20:07.694Z,10.95
2023-01-26T11:22:42.403Z,9.15
2023-01-26T11:25:22.036Z,14.57
2023-01-26T11:27:57.703Z,15.18
2023-01-26T11:30:32.426Z,10.75
2023-01-26T11:32:59.068Z,9.73
2023-01-26T11:36:16.855Z,10.05
2023-01-26T11:38:53.072Z,11.35
2023-01-26T11:41:44.777Z,18.02
2023-01-26T11:44:23.432Z,12.00
2023-01-26T11:47:37.679Z,9.20
2023-01-26T11:50:42.310Z,13.82
2023-01-26T11:53:26.005Z,9.82
2023-01-26T11:55:52.550Z,11.82
2023-01-26T11:58:41.137Z,16.73
2023-01-26T12:01:18.639Z,11.70
2023-01-26T12:03:45.284Z,10.05
2023-01-26T12:06:43.396Z,14.27
2023-01-26T12:09:20.288Z,14.23
2023-01-26T12:12:10.688Z,5.78
2023-01-26T12:14:54.577Z,12.98
2023-01-26T12:17:30.642Z,10.77
2023-01-26T12:20:04.809Z,10.30
2023-01-26T12:22:42.187Z,9.93
2023-01-26T12:25:41.240Z,8.75
2023-01-26T12:28:39.689Z,5.82
2023-01-26T12:31:34.258Z,13.65
2023-01-26T12:34:01.130Z,10.07
2023-01-26T12:36:55.887Z,7.30
2023-01-26T12:39:32.863Z,12.43
2023-01-26T12:42:25.203Z,8.30
2023-01-26T12:45:01.977Z,10.38
2023-01-26T12:47:39.588Z,19.33
2023-01-26T12:50:27.797Z,8.38
2023-01-26T12:53:02.562Z,5.97
2023-01-26T12:55:36.873Z,11.73
2023-01-26T12:58:11.788Z,6.95
2023-01-26T13:00:39.668Z,12.45
2023-01-26T13:03:26.715Z,10.57
2023-01-26T13:06:17.604Z,9.13
2023-01-26T13:09:00.564Z,10.48
2023-01-26T13:11:39.277Z,9.25
2023-01-26T13:14:38.062Z,9.18
2023-01-26T13:17:16.681Z,8.80
2023-01-26T13:22:18.883Z,3.92
2023-01-26T13:24:48.794Z,9.68
2023-01-26T13:27:40.827Z,13.25
2023-01-26T13:30:25.745Z,10.45
2023-01-26T13:33:25.034Z,10.38
2023-01-26T13:35:54.636Z,9.65
2023-01-26T13:38:33.089Z,7.60
2023-01-26T13:41:00.430Z,11.45
2023-01-26T13:43:38.117Z,9.63
2023-01-26T13:46:39.907Z,9.10
2023-01-26T13:49:24.086Z,11.00
2023-01-26T13:51:50.713Z,9.95
2023-01-26T13:54:18.028Z,7.85
2023-01-26T13:57:07.274Z,11.05
2023-01-26T13:59:34.793Z,6.60
2023-01-26T14:02:01.747Z,6.30
2023-01-26T14:04:30.844Z,8.73
2023-01-26T14:06:57.472Z,8.95
2023-01-26T14:09:27.126Z,11.77
2023-01-26T14:12:00.922Z,8.63
2023-01-26T14:14:35.005Z,8.88
2023-01-26T14:17:08.224Z,11.27
2023-01-26T14:19:40.021Z,9.90
2023-01-26T14:22:13.569Z,12.82
2023-01-26T14:24:41.370Z,4.85
2023-01-26T14:27:36.804Z,7.95
2023-01-26T14:30:27.217Z,8.23
2023-01-26T14:33:03.289Z,11.38
2023-01-26T14:35:30.269Z,3.65
2023-01-26T14:38:16.431Z,10.65
2023-01-26T14:40:50.294Z,6.03
2023-01-26T14:43:17.729Z,8.70
2023-01-26T14:45:48.360Z,9.70
2023-01-26T14:48:20.475Z,11.82
2023-01-26T14:50:48.275Z,4.20
2023-01-26T14:53:21.606Z,8.82
2023-01-26T14:55:49.219Z,7.15
2023-01-26T14:58:32.012Z,10.05
2023-01-26T15:01:01.106Z,7.78
2023-01-26T15:03:37.585Z,11.95
2023-01-26T15:06:27.558Z,3.88
2023-01-26T15:09:03.576Z,6.75
2023-01-26T15:11:56.660Z,9.82
2023-01-26T15:14:46.331Z,7.55
2023-01-26T15:17:37.110Z,5.22
2023-01-26T15:20:15.925Z,9.73
2023-01-26T15:22:50.478Z,8.52
2023-01-26T15:25:26.113Z,9.63
2023-01-26T15:27:59.173Z,6.20
2023-01-26T15:30:37.038Z,7.50
2023-01-26T15:33:03.810Z,10.30
2023-01-26T15:35:33.025Z,6.97
2023-01-26T15:38:04.812Z,8.88
2023-01-26T15:40:32.016Z,7.28
2023-01-26T15:43:11.829Z,10.15
2023-01-26T15:45:43.403Z,7.80
2023-01-26T15:48:10.191Z,14.65
2023-01-26T15:50:36.894Z,5.97
2023-01-26T15:53:03.623Z,4.25
2023-01-26T15:55:33.088Z,5.20
2023-01-26T15:58:00.885Z,11.35
2023-01-26T16:00:27.640Z,6.07
2023-01-26T16:02:54.292Z,9.07
2023-01-26T16:05:23.127Z,5.90
2023-01-26T16:07:51.163Z,4.80
2023-01-26T16:10:18.285Z,7.85
2023-01-26T16:12:47.281Z,10.15
2023-01-26T16:15:47.726Z,7.50
2023-01-26T16:18:14.666Z,3.90
2023-01-26T16:20:43.199Z,4.63
2023-01-26T16:23:20.158Z,7.47
2023-01-26T16:25:46.981Z,8.55
2023-01-26T16:28:14.545Z,7.22
2023-01-26T16:30:43.996Z,5.47
2023-01-26T16:33:16.954Z,3.35
2023-01-26T16:35:44.239Z,5.70
2023-01-26T16:38:13.804Z,6.60
2023-01-26T16:40:42.052Z,5.80
2023-01-26T16:43:27.584Z,5.90
2023-01-26T16:45:54.820Z,6.68
2023-01-26T16:48:22.825Z,5.18
2023-01-26T16:50:54.089Z,5.07
2023-01-26T16:53:29.423Z,3.70
2023-01-26T16:55:56.497Z,4.82
2023-01-26T16:58:26.566Z,2.17
2023-01-26T17:00:54.728Z,3.67
2023-01-26T17:03:21.416Z,8.57
2023-01-26T17:05:48.164Z,4.72
2023-01-26T17:08:14.827Z,4.55
2023-01-26T17:10:55.476Z,5.68
2023-01-26T17:13:27.607Z,8.82
2023-01-26T17:15:56.548Z,3.25
2023-01-26T17:18:23.291Z,6.80
2023-01-26T17:20:49.981Z,8.60
2023-01-26T17:23:16.632Z,6.70
2023-01-26T17:25:43.291Z,5.97
2023-01-26T17:28:09.923Z,9.30
2023-01-26T17:30:37.415Z,8.90
2023-01-26T17:33:04.217Z,5.13
2023-01-26T17:35:30.808Z,6.38
2023-01-26T17:37:57.472Z,9.55
2023-01-26T17:40:24.118Z,5.97
2023-01-26T17:42:51.076Z,8.07
2023-01-26T17:45:17.850Z,7.47
2023-01-26T17:47:44.515Z,8.20
2023-01-26T17:50:11.343Z,8.93
2023-01-26T17:52:40.513Z,4.60
2023-01-26T17:55:07.362Z,7.70
2023-01-26T17:57:34.563Z,5.43
2023-01-26T18:00:01.351Z,7.80
2023-01-26T18:02:28.113Z,11.27
2023-01-26T18:04:54.825Z,3.85
2023-01-26T18:07:21.482Z,6.47
2023-01-26T18:09:48.086Z,6.05
2023-01-26T18:12:14.765Z,12.02
2023-01-26T18:14:41.964Z,6.85
2023-01-26T18:17:08.558Z,4.25
2023-01-26T18:19:35.231Z,7.28
2023-01-26T18:22:01.817Z,3.15
2023-01-26T18:24:28.546Z,8.70
2023-01-26T18:26:55.134Z,9.38
2023-01-26T18:29:21.859Z,4.47
2023-01-26T18:31:48.593Z,8.38
2023-01-26T18:34:15.378Z,5.65
2023-01-26T18:36:42.022Z,4.65
2023-01-26T18:39:13.189Z,10.77
2023-01-26T18:41:40.906Z,10.75
2023-01-26T18:44:08.326Z,6.90
2023-01-26T18:46:35.697Z,8.02
2023-01-26T18:49:03.557Z,8.82
2023-01-26T18:51:32.786Z,6.93
2023-01-26T18:53:59.556Z,11.18
2023-01-26T18:56:26.396Z,10.20
2023-01-26T18:58:54.408Z,8.65
2023-01-26T19:01:21.697Z,10.30
2023-01-26T19:03:54.093Z,8.40
2023-01-26T19:08:57.542Z,5.90
2023-01-26T19:11:26.665Z,10.18
2023-01-26T19:13:53.426Z,7.22
2023-01-26T19:16:20.075Z,10.80
2023-01-26T19:18:47.080Z,6.25
2023-01-26T19:21:14.008Z,11.30
2023-01-26T19:23:42.633Z,4.25
2023-01-26T19:26:11.667Z,5.45
2023-01-26T19:28:41.271Z,10.00
2023-01-26T19:31:09.674Z,10.75
2023-01-26T19:33:36.842Z,5.63
2023-01-26T19:36:08.041Z,9.75
2023-01-26T19:38:39.283Z,7.20
2023-01-26T19:41:06.279Z,5.47
2023-01-26T19:43:32.932Z,10.57
2023-01-26T19:45:59.608Z,7.90
2023-01-26T19:48:27.625Z,9.32
2023-01-26T19:50:59.336Z,5.55
2023-01-26T19:53:27.196Z,5.57
2023-01-26T19:55:54.094Z,5.88
2023-01-26T19:58:20.953Z,6.28
2023-01-26T20:00:47.644Z,12.50
2023-01-26T20:03:14.398Z,13.73
2023-01-26T20:05:41.094Z,7.55
2023-01-26T20:08:07.822Z,9.48
2023-01-26T20:10:34.465Z,7.05
2023-01-26T20:13:01.434Z,9.10
2023-01-26T20:15:28.151Z,5.97
2023-01-26T20:17:54.753Z,4.30
2023-01-26T20:20:21.360Z,13.73
2023-01-26T20:22:48.044Z,6.50
2023-01-26T20:25:14.775Z,5.10
2023-01-26T20:27:41.410Z,7.75
2023-01-26T20:30:08.831Z,9.63
2023-01-26T20:32:35.535Z,6.00
2023-01-26T20:35:02.493Z,6.15
2023-01-26T20:37:29.546Z,5.28
2023-01-26T20:39:56.305Z,8.60
2023-01-26T20:42:22.987Z,4.57
2023-01-26T20:44:49.689Z,4.15
2023-01-26T20:47:16.438Z,7.13
2023-01-26T20:49:43.118Z,7.80
2023-01-26T20:52:09.783Z,4.80
2023-01-26T20:54:36.496Z,5.00
2023-01-26T20:57:03.855Z,4.88
2023-01-26T20:59:30.599Z,5.30
2023-01-26T21:01:57.596Z,10.05
2023-01-26T21:04:24.298Z,7.65
2023-01-26T21:06:51.017Z,4.97
2023-01-26T21:09:17.631Z,6.25
2023-01-26T21:11:44.258Z,8.90
2023-01-26T21:14:13.287Z,7.07
2023-01-26T21:16:40.031Z,6.30
2023-01-26T21:19:06.726Z,4.72
2023-01-26T21:21:33.511Z,5.00
2023-01-26T21:24:00.260Z,4.95
2023-01-26T21:26:27.877Z,6.40
2023-01-26T21:28:59.752Z,5.95
2023-01-26T21:31:28.809Z,6.57
2023-01-26T21:33:56.070Z,7.82
2023-01-26T21:36:25.294Z,4.47
2023-01-26T21:38:53.280Z,7.30
2023-01-26T21:41:41.345Z,4.85
2023-01-26T21:44:11.591Z,10.20
2023-01-26T21:46:39.007Z,8.82
2023-01-26T21:49:06.539Z,8.27
2023-01-26T21:51:52.050Z,10.55
2023-01-26T21:54:19.012Z,5.72
2023-01-26T21:56:45.801Z,5.22
2023-01-26T21:59:17.313Z,6.78
2023-01-26T22:01:46.490Z,10.75
2023-01-26T22:04:16.278Z,4.55
2023-01-26T22:06:43.302Z,8.40
2023-01-26T22:09:11.828Z,2.95
2023-01-26T22:11:39.688Z,4.05
2023-01-26T22:14:07.864Z,5.35
2023-01-26T22:16:34.547Z,11.25
2023-01-26T22:19:01.347Z,9.55
2023-01-26T22:21:27.952Z,4.25
2023-01-26T22:23:55.327Z,14.57
2023-01-26T22:26:23.247Z,8.13
2023-01-26T22:28:54.923Z,5.78
2023-01-26T22:31:26.170Z,8.20
2023-01-26T22:33:54.400Z,4.32
2023-01-26T22:36:22.124Z,6.95
2023-01-26T22:38:51.013Z,4.40
2023-01-26T22:41:23.643Z,6.10
2023-01-26T22:43:52.078Z,5.05
2023-01-26T22:46:19.462Z,5.32
2023-01-26T22:48:46.173Z,8.82
2023-01-26T22:51:18.051Z,7.38
2023-01-26T22:53:45.375Z,8.10
2023-01-26T22:56:12.484Z,7.63
2023-01-26T22:58:56.556Z,5.13
2023-01-26T23:01:24.710Z,3.60
2023-01-26T23:03:53.172Z,2.92
2023-01-26T23:06:20.507Z,4.35
2023-01-26T23:08:47.355Z,4.32
2023-01-26T23:11:23.041Z,6.03
2023-01-26T23:13:52.011Z,8.23
2023-01-26T23:16:19.416Z,9.27
2023-01-26T23:18:46.032Z,8.40
2023-01-26T23:21:13.021Z,5.80
2023-01-26T23:23:41.004Z,6.32
2023-01-26T23:26:08.987Z,5.82
2023-01-26T23:28:39.161Z,5.35
2023-01-26T23:31:06.141Z,4.18
2023-01-26T23:33:34.047Z,5.07
2023-01-26T23:36:01.689Z,5.15
2023-01-26T23:38:30.152Z,8.63
2023-01-26T23:40:57.529Z,5.65
2023-01-26T23:43:24.599Z,4.05
2023-01-26T23:45:52.230Z,8.43
2023-01-26T23:48:19.848Z,9.43
2023-01-26T23:50:47.146Z,4.57
2023-01-26T23:53:13.873Z,6.55
2023-01-26T23:55:44.167Z,8.15
2023-01-26T23:58:12.168Z,9.50
